Time;durP1;ratioP1;P1;durP2;ratioP2;P2;SDS_P1;SDS_P2;PMS_P1;PMS_P2;Temp;Humidity;BMP_temperature;BMP_pressure;BME280_temperature;BME280_humidity;BME280_pressure;Samples;Min_cycle;Max_cycle;Signal;HPM_P1;HPM_P2
2023/06/27 00:02:26;;;;;;;12.18;5.65;;;;;;;;;;5015912;28;20053;-72
2023/06/27 00:04:56;;;;;;;8.60;5.70;;;;;;;;;;5033762;28;20021;-72
2023/06/27 00:07:27;;;;;;;9.27;5.75;;;;;;;;;;5032602;28;20644;-72
2023/06/27 00:09:53;;;;;;;9.05;5.95;;;;;;;;;;5033606;28;20025;-72
2023/06/27 00:12:19;;;;;;;9.43;5.78;;;;;;;;;;5033438;28;20063;-71
2023/06/27 00:14:45;;;;;;;12.95;6.05;;;;;;;;;;5033345;28;20025;-72
2023/06/27 00:17:12;;;;;;;11.88;5.93;;;;;;;;;;5032482;28;20460;-72
2023/06/27 00:19:41;;;;;;;11.45;5.97;;;;;;;;;;5033049;28;20028;-74
2023/06/27 00:22:09;;;;;;;10.77;5.65;;;;;;;;;;5013519;28;20022;-73
2023/06/27 00:24:35;;;;;;;11.88;6.25;;;;;;;;;;5013362;28;20101;-73
2023/06/27 00:27:01;;;;;;;10.85;6.75;;;;;;;;;;5012871;28;20034;-72
2023/06/27 00:29:27;;;;;;;10.32;6.32;;;;;;;;;;5012811;28;20036;-72
2023/06/27 00:31:53;;;;;;;11.20;5.70;;;;;;;;;;5012916;28;20033;-72
2023/06/27 00:34:19;;;;;;;10.30;6.65;;;;;;;;;;5013075;28;20034;-73
2023/06/27 00:36:45;;;;;;;8.63;5.78;;;;;;;;;;5013332;28;20105;-73
2023/06/27 00:39:11;;;;;;;9.65;6.40;;;;;;;;;;5002406;28;20069;-73
2023/06/27 00:41:37;;;;;;;14.23;6.75;;;;;;;;;;4995633;28;20026;-74
2023/06/27 00:44:08;;;;;;;9.85;6.72;;;;;;;;;;5013205;28;20022;-72
2023/06/27 00:46:38;;;;;;;10.60;6.70;;;;;;;;;;4995879;28;20108;-72
2023/06/27 00:49:08;;;;;;;10.73;6.43;;;;;;;;;;5013151;28;20084;-73
2023/06/27 00:51:34;;;;;;;8.43;5.63;;;;;;;;;;5013412;28;20030;-73
2023/06/27 00:54:00;;;;;;;10.00;5.85;;;;;;;;;;5013045;28;20046;-74
2023/06/27 00:56:26;;;;;;;8.77;5.97;;;;;;;;;;5013268;28;20109;-72
2023/06/27 00:58:54;;;;;;;13.82;5.95;;;;;;;;;;5012520;28;20022;-72
2023/06/27 01:01:21;;;;;;;6.85;4.50;;;;;;;;;;5013061;28;20473;-72
2023/06/27 01:03:47;;;;;;;9.38;4.72;;;;;;;;;;5013065;28;20014;-72
2023/06/27 01:06:15;;;;;;;8.95;4.45;;;;;;;;;;5012987;28;20021;-72
2023/06/27 01:08:42;;;;;;;9.88;4.93;;;;;;;;;;5012840;28;20022;-72
2023/06/27 01:11:30;;;;;;;8.13;4.82;;;;;;;;;;5012668;28;20057;-72
2023/06/27 01:13:56;;;;;;;8.65;4.78;;;;;;;;;;5023701;28;20108;-73
2023/06/27 01:16:24;;;;;;;8.85;4.90;;;;;;;;;;5032704;28;20050;-73
2023/06/27 01:18:51;;;;;;;8.95;4.85;;;;;;;;;;5032478;28;20468;-73
2023/06/27 01:21:21;;;;;;;8.07;4.72;;;;;;;;;;5032231;28;20017;-73
2023/06/27 01:23:54;;;;;;;6.75;4.18;;;;;;;;;;5032482;28;20025;-72
2023/06/27 01:26:20;;;;;;;6.45;4.35;;;;;;;;;;5032202;28;20021;-72
2023/06/27 01:28:46;;;;;;;8.32;4.22;;;;;;;;;;5032186;28;20025;-72
2023/06/27 01:31:17;;;;;;;8.68;4.40;;;;;;;;;;5032254;28;20427;-72
2023/06/27 01:33:46;;;;;;;9.15;4.22;;;;;;;;;;5032316;28;20025;-72
2023/06/27 01:36:17;;;;;;;10.13;4.20;;;;;;;;;;5032027;28;20543;-71
2023/06/27 01:38:54;;;;;;;7.18;3.67;;;;;;;;;;5031925;28;20037;-72
2023/06/27 01:41:23;;;;;;;14.65;4.65;;;;;;;;;;5030655;28;20387;-71
2023/06/27 01:43:50;;;;;;;8.27;4.05;;;;;;;;;;5035871;28;20017;-72
2023/06/27 01:46:16;;;;;;;7.95;4.43;;;;;;;;;;5031034;28;20499;-71
2023/06/27 01:48:43;;;;;;;5.45;3.95;;;;;;;;;;5013698;28;20440;-71
2023/06/27 01:51:09;;;;;;;10.27;3.60;;;;;;;;;;5029892;28;20022;-71
2023/06/27 01:53:36;;;;;;;8.88;4.10;;;;;;;;;;5031379;28;20064;-71
2023/06/27 01:56:02;;;;;;;8.05;4.22;;;;;;;;;;5030153;28;20022;-71
2023/06/27 01:58:28;;;;;;;5.10;4.05;;;;;;;;;;5031283;28;20029;-71
2023/06/27 02:00:54;;;;;;;11.30;4.28;;;;;;;;;;5030195;28;20026;-71
2023/06/27 02:03:20;;;;;;;7.97;3.55;;;;;;;;;;5027882;28;20020;-70
2023/06/27 02:05:46;;;;;;;7.68;3.47;;;;;;;;;;5012394;28;20446;-72
2023/06/27 02:08:12;;;;;;;10.48;3.55;;;;;;;;;;5029666;28;20041;-72
2023/06/27 02:10:38;;;;;;;11.98;4.05;;;;;;;;;;5031447;28;20050;-71
2023/06/27 02:13:04;;;;;;;10.07;3.97;;;;;;;;;;5043078;22;20065;-78
2023/06/27 02:15:30;;;;;;;5.95;3.40;;;;;;;;;;5013759;28;20101;-79
2023/06/27 02:17:57;;;;;;;8.05;3.70;;;;;;;;;;5019267;28;20091;-79
2023/06/27 02:20:23;;;;;;;11.07;4.10;;;;;;;;;;5022224;28;20040;-78
2023/06/27 02:22:49;;;;;;;7.32;3.50;;;;;;;;;;5015554;28;20052;-78
2023/06/27 02:25:17;;;;;;;7.80;4.07;;;;;;;;;;5000521;28;20116;-78
2023/06/27 02:27:46;;;;;;;7.47;3.83;;;;;;;;;;5011764;28;20030;-78
2023/06/27 02:30:13;;;;;;;9.95;4.15;;;;;;;;;;5012189;28;20029;-78
2023/06/27 02:32:39;;;;;;;9.93;3.80;;;;;;;;;;5011702;28;20030;-78
2023/06/27 02:35:07;;;;;;;11.98;4.22;;;;;;;;;;5011971;28;20113;-78
2023/06/27 02:37:33;;;;;;;7.55;3.15;;;;;;;;;;5011216;28;20052;-78
2023/06/27 02:39:59;;;;;;;10.65;3.25;;;;;;;;;;5011859;28;20054;-78
2023/06/27 02:42:25;;;;;;;10.63;3.83;;;;;;;;;;4993795;28;20053;-78
2023/06/27 02:44:51;;;;;;;8.63;3.33;;;;;;;;;;4993956;28;20113;-78
2023/06/27 02:47:19;;;;;;;10.38;3.88;;;;;;;;;;5012612;28;20105;-80
2023/06/27 02:49:45;;;;;;;10.32;4.43;;;;;;;;;;5020662;28;20041;-80
2023/06/27 02:52:11;;;;;;;6.93;3.88;;;;;;;;;;5018278;28;20037;-79
2023/06/27 02:54:37;;;;;;;13.15;4.15;;;;;;;;;;5014587;28;20030;-80
2023/06/27 02:57:03;;;;;;;9.23;3.90;;;;;;;;;;5003809;28;20026;-80
2023/06/27 02:59:29;;;;;;;12.50;3.85;;;;;;;;;;5023165;28;20026;-80
2023/06/27 03:01:55;;;;;;;6.35;3.58;;;;;;;;;;5024481;28;20027;-80
2023/06/27 03:04:22;;;;;;;8.52;4.10;;;;;;;;;;5000778;28;20541;-80
2023/06/27 03:06:48;;;;;;;8.63;3.83;;;;;;;;;;5016238;28;20105;-79
2023/06/27 03:09:14;;;;;;;10.13;4.53;;;;;;;;;;4997932;28;20030;-79
2023/06/27 03:11:41;;;;;;;14.30;4.07;;;;;;;;;;4998031;28;20060;-79
2023/06/27 03:14:07;;;;;;;8.63;3.53;;;;;;;;;;5015098;28;20045;-77
2023/06/27 03:16:33;;;;;;;11.63;5.68;;;;;;;;;;5015218;28;20030;-77
2023/06/27 03:18:59;;;;;;;18.95;10.07;;;;;;;;;;5014938;28;20030;-78
2023/06/27 03:21:25;;;;;;;11.25;3.78;;;;;;;;;;5015109;28;20476;-78
2023/06/27 03:23:51;;;;;;;8.90;3.53;;;;;;;;;;5014920;28;20164;-78
2023/06/27 03:26:17;;;;;;;7.38;3.13;;;;;;;;;;5015225;28;20022;-78
2023/06/27 03:28:43;;;;;;;5.25;2.83;;;;;;;;;;5014673;28;20406;-79
2023/06/27 03:31:09;;;;;;;7.10;2.90;;;;;;;;;;5015106;28;20029;-78
2023/06/27 03:33:35;;;;;;;9.75;3.22;;;;;;;;;;5014795;28;20025;-78
2023/06/27 03:36:01;;;;;;;8.10;2.92;;;;;;;;;;5014968;28;20081;-78
2023/06/27 03:38:27;;;;;;;9.70;2.97;;;;;;;;;;5014591;28;20073;-78
2023/06/27 03:40:53;;;;;;;8.05;2.63;;;;;;;;;;5014912;28;20024;-78
2023/06/27 03:43:19;;;;;;;5.65;2.35;;;;;;;;;;5014920;28;20045;-77
2023/06/27 03:45:46;;;;;;;6.18;2.65;;;;;;;;;;5014597;28;20365;-78
2023/06/27 03:48:12;;;;;;;8.18;2.30;;;;;;;;;;5014793;28;20026;-78
2023/06/27 03:50:38;;;;;;;12.75;2.60;;;;;;;;;;5014669;28;20026;-78
2023/06/27 03:53:04;;;;;;;8.88;2.63;;;;;;;;;;5014701;28;20041;-78
2023/06/27 03:55:30;;;;;;;6.75;2.70;;;;;;;;;;5014471;28;20029;-78
2023/06/27 03:57:56;;;;;;;4.18;2.30;;;;;;;;;;5014290;28;20030;-78
2023/06/27 04:00:22;;;;;;;17.08;3.53;;;;;;;;;;5014545;28;20682;-78
2023/06/27 04:02:48;;;;;;;9.95;2.40;;;;;;;;;;5014469;28;20153;-78
2023/06/27 04:05:14;;;;;;;5.70;2.17;;;;;;;;;;4996469;28;20030;-78
2023/06/27 04:07:42;;;;;;;12.82;3.20;;;;;;;;;;5014487;28;20080;-78
2023/06/27 04:10:09;;;;;;;9.02;2.88;;;;;;;;;;4995898;28;20018;-78
2023/06/27 04:12:35;;;;;;;7.22;2.33;;;;;;;;;;5013963;28;20037;-79
2023/06/27 04:15:01;;;;;;;7.50;2.40;;;;;;;;;;5013986;28;20018;-79
2023/06/27 04:17:27;;;;;;;5.72;2.25;;;;;;;;;;4996628;28;20029;-79
2023/06/27 04:19:53;;;;;;;3.53;2.17;;;;;;;;;;4996501;28;20026;-79
2023/06/27 04:22:19;;;;;;;8.27;2.80;;;;;;;;;;5014512;28;20468;-79
2023/06/27 04:24:45;;;;;;;8.02;2.70;;;;;;;;;;5014153;28;20033;-79
2023/06/27 04:27:11;;;;;;;6.32;3.13;;;;;;;;;;5014004;28;20472;-79
2023/06/27 04:29:37;;;;;;;6.13;2.75;;;;;;;;;;5014106;28;20033;-79
2023/06/27 04:32:04;;;;;;;9.65;2.35;;;;;;;;;;5014556;28;20030;-79
2023/06/27 04:34:30;;;;;;;6.20;2.40;;;;;;;;;;5019648;28;20041;-79
2023/06/27 04:36:57;;;;;;;5.63;2.45;;;;;;;;;;5020656;28;20497;-80
2023/06/27 04:39:23;;;;;;;7.50;2.40;;;;;;;;;;5022074;28;20061;-80
2023/06/27 04:41:49;;;;;;;8.52;3.10;;;;;;;;;;5000171;28;20026;-78
2023/06/27 04:44:15;;;;;;;8.93;3.10;;;;;;;;;;5014746;28;20622;-78
2023/06/27 04:46:41;;;;;;;7.10;2.85;;;;;;;;;;5013795;28;20102;-77
2023/06/27 04:49:07;;;;;;;4.93;2.08;;;;;;;;;;5013647;28;20113;-79
2023/06/27 04:51:33;;;;;;;8.93;3.25;;;;;;;;;;5019595;28;20484;-80
2023/06/27 04:53:59;;;;;;;12.90;2.92;;;;;;;;;;5021291;28;20037;-78
2023/06/27 04:56:27;;;;;;;8.93;2.85;;;;;;;;;;5024315;28;20105;-80
2023/06/27 04:58:53;;;;;;;9.43;3.10;;;;;;;;;;5024719;28;20026;-80
2023/06/27 05:01:19;;;;;;;6.57;3.10;;;;;;;;;;4998363;28;20076;-78
2023/06/27 05:03:46;;;;;;;15.23;3.08;;;;;;;;;;5020781;22;20165;-79
2023/06/27 05:06:14;;;;;;;8.95;2.55;;;;;;;;;;5013030;28;20041;-78
2023/06/27 05:08:41;;;;;;;9.75;2.67;;;;;;;;;;5014607;28;20014;-78
2023/06/27 05:11:20;;;;;;;10.75;2.88;;;;;;;;;;5015596;28;20026;-78
2023/06/27 05:13:46;;;;;;;8.35;2.55;;;;;;;;;;4993710;28;20105;-78
2023/06/27 05:16:12;;;;;;;14.90;3.33;;;;;;;;;;4992292;28;20093;-78
2023/06/27 05:18:41;;;;;;;7.55;3.08;;;;;;;;;;4990590;28;20069;-77
2023/06/27 05:21:07;;;;;;;5.22;2.72;;;;;;;;;;4992271;28;20053;-79
2023/06/27 05:23:33;;;;;;;9.68;3.17;;;;;;;;;;4993016;28;20026;-77
2023/06/27 05:25:59;;;;;;;12.88;3.22;;;;;;;;;;4993646;28;20100;-78
2023/06/27 05:28:25;;;;;;;8.73;3.17;;;;;;;;;;4992695;28;20026;-77
2023/06/27 05:30:57;;;;;;;10.82;2.63;;;;;;;;;;4993464;28;20057;-79
2023/06/27 05:33:23;;;;;;;6.13;2.55;;;;;;;;;;4982540;28;20128;-79
2023/06/27 05:35:49;;;;;;;8.13;2.67;;;;;;;;;;4995887;28;20026;-79
2023/06/27 05:38:15;;;;;;;9.63;2.70;;;;;;;;;;5006316;28;20026;-79
2023/06/27 05:40:42;;;;;;;10.88;2.55;;;;;;;;;;4999579;28;20030;-79
2023/06/27 05:43:08;;;;;;;5.88;2.17;;;;;;;;;;4997746;28;20033;-80
2023/06/27 05:45:34;;;;;;;6.28;2.58;;;;;;;;;;4985298;28;20040;-79
2023/06/27 05:48:00;;;;;;;7.93;2.40;;;;;;;;;;4983344;28;20134;-78
2023/06/27 05:50:27;;;;;;;10.25;2.97;;;;;;;;;;4975107;28;20458;-78
2023/06/27 05:53:09;;;;;;;;;;;;;;;;;;;;;
2023/06/27 06:05:48;;;;;;;11.07;2.88;;;;;;;;;;4929449;29;20063;-79
2023/06/27 07:16:58;;;;;;;3.63;1.80;;;30.50;33.40;;;;;;5035706;28;20064;-80
2023/06/27 07:19:46;;;;;;;;;;;;;;;;;;;;;
2023/06/27 07:28:43;;;;;;;4.80;1.60;;;32.40;30.90;;;;;;4912554;29;20103;-79
2023/06/27 07:38:10;;;;;;;8.02;1.70;;;30.90;30.90;;;;;;5041219;28;20121;-79
2023/06/27 07:48:35;;;;;;;;;;;;;;;;;;;;;
2023/06/27 07:57:10;;;;;;;6.50;1.52;;;;;;;;;;5139176;22;19921;-80
2023/06/27 08:00:09;;;;;;;;;;;;;;;;;;;;;
2023/06/27 08:02:57;;;;;;;6.35;2.13;;;;;;;;;;5035752;28;20031;-80
2023/06/27 08:09:25;;;;;;;5.32;1.58;;;;;;;;;;4954953;28;20510;-79
2023/06/27 08:14:31;;;;;;;5.80;1.67;;;;;;;;;;5012734;28;20156;-74
2023/06/27 08:16:57;;;;;;;4.75;1.50;;;;;;;;;;5028255;28;20467;-74
2023/06/27 08:19:23;;;;;;;3.60;1.48;;;;;;;;;;5013515;28;20077;-75
2023/06/27 08:21:49;;;;;;;3.97;1.77;;;;;;;;;;4995996;28;20532;-75
2023/06/27 08:24:15;;;;;;;4.20;1.27;;;;;;;;;;5013517;28;20033;-74
2023/06/27 08:26:41;;;;;;;3.10;1.10;;;;;;;;;;4996806;28;20397;-76
2023/06/27 08:29:07;;;;;;;4.40;1.52;;;;;;;;;;5013662;28;20466;-74
2023/06/27 08:31:33;;;;;;;2.58;1.58;;;;;;;;;;5013605;28;20025;-74
2023/06/27 08:33:59;;;;;;;9.18;1.58;;;;;;;;;;5013408;28;20424;-75
2023/06/27 08:36:25;;;;;;;3.90;1.75;;;;;;;;;;5013516;28;20033;-75
2023/06/27 08:38:51;;;;;;;4.68;1.50;;;;;;;;;;5013285;28;20026;-75
2023/06/27 08:41:17;;;;;;;5.32;1.58;;;;;;;;;;5013377;28;20036;-75
2023/06/27 08:43:43;;;;;;;2.92;1.23;;;;;;;;;;5013528;28;20022;-76
2023/06/27 08:46:09;;;;;;;6.15;1.83;;;;;;;;;;5013306;28;20495;-77
2023/06/27 08:48:43;;;;;;;5.40;1.20;;;;;;;;;;4995607;28;20527;-76
2023/06/27 08:51:11;;;;;;;6.78;1.45;;;;;;;;;;5013190;28;20034;-76
2023/06/27 08:53:38;;;;;;;5.07;1.60;;;;;;;;;;5013390;28;20400;-74
2023/06/27 08:56:05;;;;;;;2.90;1.15;;;;;;;;;;5012874;28;20022;-74
2023/06/27 08:58:42;;;;;;;3.65;1.25;;;;;;;;;;5013137;28;20025;-74
2023/06/27 09:01:09;;;;;;;5.57;1.42;;;;;;;;;;5013020;28;20026;-74
2023/06/27 09:03:36;;;;;;;5.97;1.38;;;;;;;;;;5013044;28;20737;-74
2023/06/27 09:06:05;;;;;;;4.40;1.67;;;;;;;;;;5012936;28;20377;-76
2023/06/27 09:08:31;;;;;;;2.97;1.20;;;;;;;;;;5012789;28;20109;-74
2023/06/27 09:10:57;;;;;;;5.57;1.40;;;;;;;;;;5012903;28;20053;-74
2023/06/27 09:13:23;;;;;;;5.72;1.80;;;;;;;;;;5013085;28;20030;-75
2023/06/27 09:15:49;;;;;;;8.30;1.95;;;;;;;;;;5012745;28;20029;-75
2023/06/27 09:18:15;;;;;;;8.65;1.73;;;;;;;;;;5012602;28;20026;-74
2023/06/27 09:20:41;;;;;;;6.38;1.52;;;;;;;;;;5012523;28;20684;-74
2023/06/27 09:23:08;;;;;;;5.47;1.90;;;;;;;;;;5012353;28;20018;-74
2023/06/27 09:25:34;;;;;;;6.47;1.90;;;;;;;;;;4994936;28;20113;-74
2023/06/27 09:28:13;;;;;;;7.20;1.58;;;;;;;;;;5012712;28;20459;-73
2023/06/27 09:30:39;;;;;;;3.55;1.42;;;;;;;;;;5012910;28;20022;-74
2023/06/27 09:33:05;;;;;;;4.97;1.80;;;;;;;;;;4994643;28;20041;-74
2023/06/27 09:35:32;;;;;;;4.70;1.10;;;;;;;;;;5012221;28;20030;-74
2023/06/27 09:38:08;;;;;;;5.40;1.08;;;;;;;;;;4994088;28;20453;-74
2023/06/27 09:40:35;;;;;;;2.67;1.10;;;;;;;;;;5012604;28;20022;-74
2023/06/27 09:43:01;;;;;;;7.00;1.55;;;;;;;;;;5012184;28;20075;-73
2023/06/27 09:45:29;;;;;;;2.72;1.15;;;;;;;;;;5012308;28;20029;-74
2023/06/27 09:47:55;;;;;;;4.97;1.38;;;;;;;;;;5011771;28;20030;-75
2023/06/27 09:50:29;;;;;;;4.55;1.30;;;;;;;;;;5012511;28;20018;-74
2023/06/27 09:52:56;;;;;;;5.13;1.20;;;;;;;;;;5012131;28;20022;-74
2023/06/27 09:55:22;;;;;;;8.65;1.77;;;;;;;;;;5012334;28;20033;-75
2023/06/27 09:57:48;;;;;;;6.80;1.85;;;;;;;;;;5011624;28;20017;-74
2023/06/27 10:00:14;;;;;;;6.20;1.80;;;;;;;;;;4994516;28;20018;-74
2023/06/27 10:02:41;;;;;;;8.07;1.63;;;;;;;;;;4994222;28;20053;-74
2023/06/27 10:05:08;;;;;;;6.10;1.50;;;;;;;;;;5012807;28;20030;-75
2023/06/27 10:07:34;;;;;;;4.85;1.40;;;;;;;;;;4995383;28;20479;-75
2023/06/27 10:10:00;;;;;;;5.15;1.30;;;;;;;;;;5015772;28;20030;-75
2023/06/27 10:12:27;;;;;;;5.50;1.85;;;;;;;;;;5017783;28;20072;-74
2023/06/27 10:14:53;;;;;;;5.45;1.77;;;;;;;;;;4999951;28;20052;-74
2023/06/27 10:17:20;;;;;;;3.55;1.33;;;;;;;;;;5013251;28;20089;-74
2023/06/27 10:19:46;;;;;;;3.00;1.42;;;;;;;;;;5010400;28;20033;-74
2023/06/27 10:22:17;;;;;;;9.68;1.90;;;;;;;;;;5010739;28;20026;-74
2023/06/27 10:24:44;;;;;;;7.93;1.88;;;;;;;;;;5011784;28;20029;-75
2023/06/27 10:27:13;;;;;;;3.30;1.15;;;;;;;;;;4993639;28;20029;-74
2023/06/27 10:29:42;;;;;;;5.63;1.20;;;;;;;;;;5011615;28;20484;-75
2023/06/27 10:32:08;;;;;;;2.63;1.40;;;;;;;;;;4993909;28;20396;-74
2023/06/27 10:35:01;;;;;;;3.03;1.05;;;;;;;;;;5009870;28;20022;-75
2023/06/27 10:37:27;;;;;;;5.85;1.38;;;;;;;;;;5004726;28;20094;-74
2023/06/27 10:39:56;;;;;;;4.10;1.25;;;;;;;;;;5011054;28;20156;-74
2023/06/27 10:42:22;;;;;;;5.25;1.48;;;;;;;;;;5010064;28;20122;-76
2023/06/27 10:44:54;;;;;;;3.55;1.58;;;;;;;;;;5011587;28;20101;-74
2023/06/27 10:47:20;;;;;;;2.58;1.00;;;;;;;;;;5017348;28;20018;-74
2023/06/27 10:49:47;;;;;;;2.92;1.50;;;;;;;;;;5027504;28;20045;-73
2023/06/27 10:52:23;;;;;;;3.55;1.25;;;;;;;;;;5012699;28;20029;-74
2023/06/27 10:55:08;;;;;;;3.75;1.27;;;;;;;;;;5015072;28;20470;-74
2023/06/27 10:57:40;;;;;;;2.97;1.15;;;;;;;;;;5022843;28;20116;-74
2023/06/27 11:00:13;;;;;;;2.08;0.95;;;;;;;;;;5031028;28;20053;-75
2023/06/27 11:02:43;;;;;;;6.10;1.60;;;;;;;;;;5013133;28;20026;-74
2023/06/27 11:05:13;;;;;;;2.33;0.95;;;;;;;;;;5030293;28;20056;-75
2023/06/27 11:07:40;;;;;;;3.47;1.30;;;;;;;;;;5029252;28;20476;-76
2023/06/27 11:10:23;;;;;;;2.22;0.95;;;;;;;;;;5029862;28;20026;-75
2023/06/27 11:12:49;;;;;;;2.80;1.25;;;;;;;;;;5027622;28;20021;-75
2023/06/27 11:15:17;;;;;;;10.13;1.42;;;;;;;;;;5027638;28;20052;-75
2023/06/27 11:17:45;;;;;;;3.22;1.25;;;;;;;;;;5028659;28;20025;-75
2023/06/27 11:20:12;;;;;;;3.65;0.80;;;;;;;;;;5032119;28;20029;-76
2023/06/27 11:22:38;;;;;;;3.50;1.13;;;;;;;;;;5032636;28;20030;-76
2023/06/27 11:25:14;;;;;;;4.18;1.17;;;;;;;;;;5033771;28;20049;-75
2023/06/27 11:27:40;;;;;;;6.18;1.45;;;;;;;;;;5034904;28;20468;-76
2023/06/27 11:30:07;;;;;;;3.00;1.10;;;;;;;;;;5034791;28;20491;-76
2023/06/27 11:32:33;;;;;;;1.52;0.85;;;;;;;;;;5034813;28;20025;-75
2023/06/27 11:34:59;;;;;;;1.30;0.60;;;;;;;;;;5035153;28;20028;-75
2023/06/27 11:37:26;;;;;;;2.15;0.98;;;;;;;;;;5016979;28;20038;-75
2023/06/27 11:39:53;;;;;;;4.88;1.33;;;;;;;;;;5035032;28;20037;-74
2023/06/27 11:42:31;;;;;;;2.50;1.23;;;;;;;;;;5034455;28;20502;-74
2023/06/27 11:44:57;;;;;;;2.42;0.98;;;;;;;;;;5034746;28;20041;-74
2023/06/27 11:47:23;;;;;;;2.60;1.08;;;;;;;;;;5016570;28;20017;-75
2023/06/27 11:49:49;;;;;;;5.00;1.02;;;;;;;;;;5019435;28;20097;-73
2023/06/27 11:52:15;;;;;;;4.28;1.00;;;;;;;;;;5014084;28;20477;-75
2023/06/27 11:54:49;;;;;;;2.40;1.02;;;;;;;;;;5013851;28;20022;-72
2023/06/27 11:57:17;;;;;;;3.05;1.05;;;;;;;;;;5013807;28;20026;-74
2023/06/27 11:59:43;;;;;;;4.53;1.40;;;;;;;;;;5012435;28;20018;-74
2023/06/27 12:02:10;;;;;;;7.78;1.35;;;;;;;;;;5012530;28;20033;-74
2023/06/27 12:04:36;;;;;;;5.72;1.30;;;;;;;;;;5012678;28;20030;-75
2023/06/27 12:07:21;;;;;;;4.03;1.25;;;;;;;;;;5012274;28;20057;-73
2023/06/27 12:10:03;;;;;;;4.97;1.60;;;;;;;;;;5012465;28;20508;-74
2023/06/27 12:12:29;;;;;;;;;;;;;;;;;;5012903;28;20102;-74
2023/06/27 12:15:08;;;;;;;4.03;1.20;;;;;;;;;;5014280;28;19917;-74
2023/06/27 12:17:34;;;;;;;2.38;1.08;;;;;;;;;;5014013;28;20049;-74
2023/06/27 12:20:02;;;;;;;5.97;1.33;;;;;;;;;;5013807;28;20053;-73
2023/06/27 12:22:28;;;;;;;4.13;1.20;;;;;;;;;;5013926;28;20028;-75
2023/06/27 12:24:54;;;;;;;2.72;0.95;;;;;;;;;;5013861;28;20025;-75
2023/06/27 12:27:21;;;;;;;9.02;1.52;;;;;;;;;;5013545;28;20550;-75
2023/06/27 12:29:47;;;;;;;4.78;0.90;;;;;;;;;;5013149;28;20036;-74
2023/06/27 12:32:13;;;;;;;3.88;1.10;;;;;;;;;;5013753;28;20098;-75
2023/06/27 12:34:39;;;;;;;4.20;1.17;;;;;;;;;;5013970;28;20510;-74
2023/06/27 12:37:05;;;;;;;4.97;1.13;;;;;;;;;;4996056;28;20030;-75
2023/06/27 12:39:33;;;;;;;4.28;1.10;;;;;;;;;;5013633;28;20053;-75
2023/06/27 12:41:59;;;;;;;2.58;1.33;;;;;;;;;;5013711;28;20046;-76
2023/06/27 12:44:25;;;;;;;4.30;1.42;;;;;;;;;;5013590;28;20022;-74
2023/06/27 12:46:51;;;;;;;4.78;1.33;;;;;;;;;;5013538;28;20563;-75
2023/06/27 12:49:17;;;;;;;3.03;1.15;;;;;;;;;;5013187;28;20026;-75
2023/06/27 12:51:43;;;;;;;0.90;0.75;;;;;;;;;;5013634;28;20105;-76
2023/06/27 12:54:09;;;;;;;4.78;1.30;;;;;;;;;;5013408;28;20165;-76
2023/06/27 12:56:35;;;;;;;3.08;1.23;;;;;;;;;;4995781;28;20476;-75
2023/06/27 12:59:01;;;;;;;5.30;1.00;;;;;;;;;;5013112;28;20034;-77
2023/06/27 13:01:34;;;;;;;5.60;1.08;;;;;;;;;;5013583;28;20110;-76
2023/06/27 13:04:00;;;;;;;3.45;1.27;;;;;;;;;;5013047;28;20026;-76
2023/06/27 13:06:26;;;;;;;5.00;1.20;;;;;;;;;;5013330;28;20037;-76
2023/06/27 13:08:52;;;;;;;2.15;0.90;;;;;;;;;;5012984;28;20034;-76
2023/06/27 13:11:19;;;;;;;4.03;1.17;;;;;;;;;;5013086;28;20511;-74
2023/06/27 13:13:45;;;;;;;3.55;0.90;;;;;;;;;;5012848;28;20042;-76
2023/06/27 13:16:11;;;;;;;3.75;1.00;;;;;;;;;;5013224;28;20030;-75
2023/06/27 13:18:37;;;;;;;3.10;1.85;;;;;;;;;;5012647;28;20076;-75
2023/06/27 13:21:03;;;;;;;3.45;1.02;;;;;;;;;;5013317;28;20026;-75
2023/06/27 13:23:29;;;;;;;3.30;1.00;;;;;;;;;;5013085;28;20072;-75
2023/06/27 13:25:55;;;;;;;3.47;1.10;;;;;;;;;;5012945;28;20476;-74
2023/06/27 13:28:22;;;;;;;2.28;1.25;;;;;;;;;;5012644;28;20033;-75
2023/06/27 13:30:48;;;;;;;2.63;1.10;;;;;;;;;;5012514;28;20480;-75
2023/06/27 13:33:14;;;;;;;3.28;1.20;;;;;;;;;;4995331;28;20412;-74
2023/06/27 13:35:40;;;;;;;2.88;0.88;;;;;;;;;;5012969;28;20021;-76
2023/06/27 13:38:07;;;;;;;3.58;1.10;;;;;;;;;;4996022;28;20092;-76
2023/06/27 13:40:33;;;;;;;2.90;1.08;;;;;;;;;;4995672;28;20021;-76
2023/06/27 13:42:59;;;;;;;6.78;1.55;;;;;;;;;;5012236;28;20025;-76
2023/06/27 13:45:25;;;;;;;6.65;1.10;;;;;;;;;;5012571;28;20026;-76
2023/06/27 13:47:51;;;;;;;3.42;1.10;;;;;;;;;;4994730;28;20029;-76
2023/06/27 13:50:17;;;;;;;4.88;1.33;;;;;;;;;;5012824;28;20044;-75
2023/06/27 13:52:43;;;;;;;2.75;0.93;;;;;;;;;;5012386;28;20109;-76
2023/06/27 13:55:09;;;;;;;5.60;1.23;;;;;;;;;;5012481;28;20053;-76
2023/06/27 13:57:35;;;;;;;6.47;1.33;;;;;;;;;;5012187;28;20026;-76
2023/06/27 14:00:01;;;;;;;5.40;1.10;;;;;;;;;;5012162;28;20451;-74
2023/06/27 14:02:27;;;;;;;2.83;1.40;;;;;;;;;;5011946;28;20374;-75
2023/06/27 14:04:55;;;;;;;7.50;1.80;;;;;;;;;;5012160;28;20099;-75
2023/06/27 14:07:21;;;;;;;6.00;1.15;;;;;;;;;;5011902;28;20057;-76
2023/06/27 14:09:47;;;;;;;4.45;0.95;;;;;;;;;;5012518;28;20049;-76
2023/06/27 14:12:14;;;;;;;2.88;1.30;;;;;;;;;;5013242;28;20022;-77
2023/06/27 14:14:40;;;;;;;5.25;1.42;;;;;;;;;;5046100;22;20053;-78
2023/06/27 14:17:06;;;;;;;5.65;1.40;;;;;;;;;;5035111;28;20041;-79
2023/06/27 14:19:32;;;;;;;3.50;1.30;;;;;;;;;;5018550;28;20120;-79
2023/06/27 14:21:58;;;;;;;4.25;1.40;;;;;;;;;;5036795;28;20026;-78
2023/06/27 14:24:24;;;;;;;4.18;1.52;;;;;;;;;;5039025;28;20405;-79
2023/06/27 14:26:50;;;;;;;3.38;1.00;;;;;;;;;;5019739;28;20034;-79
2023/06/27 14:29:16;;;;;;;7.28;1.50;;;;;;;;;;5036795;28;20032;-79
2023/06/27 14:31:42;;;;;;;1.70;0.65;;;;;;;;;;5018119;28;20112;-79
2023/06/27 14:34:08;;;;;;;4.05;0.80;;;;;;;;;;5035690;28;20428;-79
2023/06/27 14:36:34;;;;;;;4.30;0.98;;;;;;;;;;5036096;28;20125;-79
2023/06/27 14:39:00;;;;;;;1.10;0.90;;;;;;;;;;5035611;28;20120;-80
2023/06/27 14:41:27;;;;;;;5.32;1.30;;;;;;;;;;5037115;28;20018;-79
2023/06/27 14:43:53;;;;;;;2.05;0.85;;;;;;;;;;5037744;28;20504;-79
2023/06/27 14:46:19;;;;;;;1.85;0.80;;;;;;;;;;5035013;28;20025;-80
2023/06/27 14:48:45;;;;;;;2.05;0.82;;;;;;;;;;5033135;28;20026;-79
2023/06/27 14:51:11;;;;;;;2.58;0.90;;;;;;;;;;5032836;28;20080;-79
2023/06/27 14:53:37;;;;;;;2.10;0.93;;;;;;;;;;5040321;28;20026;-78
2023/06/27 14:56:03;;;;;;;2.42;1.00;;;;;;;;;;5048334;28;20033;-78
2023/06/27 14:58:29;;;;;;;0.93;0.88;;;;;;;;;;5052307;28;20047;-78
2023/06/27 15:00:55;;;;;;;2.70;0.90;;;;;;;;;;5057767;28;20026;-77
2023/06/27 15:03:21;;;;;;;1.17;0.85;;;;;;;;;;5051510;28;20033;-80
2023/06/27 15:05:48;;;;;;;1.60;0.80;;;;;;;;;;5024375;28;20048;-78
2023/06/27 15:08:14;;;;;;;3.08;0.77;;;;;;;;;;5023653;28;20121;-79
2023/06/27 15:10:45;;;;;;;3.85;0.90;;;;;;;;;;5042779;28;20057;-79
2023/06/27 15:13:11;;;;;;;3.25;1.05;;;;;;;;;;5050118;28;20372;-78
2023/06/27 15:15:38;;;;;;;2.65;0.82;;;;;;;;;;5047342;28;20040;-79
2023/06/27 15:18:04;;;;;;;1.70;1.10;;;;;;;;;;5043872;28;20030;-79
2023/06/27 15:20:30;;;;;;;4.13;1.08;;;;;;;;;;5042873;28;20049;-79
2023/06/27 15:22:56;;;;;;;2.80;0.82;;;;;;;;;;5021219;28;20021;-79
2023/06/27 15:25:22;;;;;;;4.07;1.13;;;;;;;;;;5039481;28;20024;-79
2023/06/27 15:27:48;;;;;;;2.15;1.05;;;;;;;;;;5038892;28;20021;-79
2023/06/27 15:30:14;;;;;;;5.55;1.10;;;;;;;;;;5038899;28;20022;-79
2023/06/27 15:32:40;;;;;;;5.85;1.27;;;;;;;;;;5021311;28;20037;-78
2023/06/27 15:35:06;;;;;;;4.32;1.40;;;;;;;;;;5039920;28;20025;-80
2023/06/27 15:37:32;;;;;;;3.63;1.30;;;;;;;;;;5040456;28;20418;-80
2023/06/27 15:39:58;;;;;;;4.47;1.27;;;;;;;;;;5039964;28;20040;-79
2023/06/27 15:42:26;;;;;;;5.20;2.20;;;;;;;;;;5040193;28;20018;-79
2023/06/27 15:44:52;;;;;;;4.97;2.50;;;;;;;;;;5040328;28;20096;-79
2023/06/27 15:47:19;;;;;;;3.10;1.23;;;;;;;;;;5022421;28;20037;-79
2023/06/27 15:49:45;;;;;;;3.22;1.23;;;;;;;;;;5041040;28;20041;-79
2023/06/27 15:52:11;;;;;;;2.83;1.33;;;;;;;;;;5041392;28;20036;-79
2023/06/27 15:54:37;;;;;;;2.90;1.20;;;;;;;;;;5040765;28;20040;-79
2023/06/27 15:57:04;;;;;;;4.38;2.30;;;;;;;;;;5022830;28;20044;-79
2023/06/27 15:59:30;;;;;;;4.35;1.55;;;;;;;;;;5040012;28;20030;-80
2023/06/27 16:01:56;;;;;;;4.25;1.05;;;;;;;;;;5040589;28;20044;-79
2023/06/27 16:04:22;;;;;;;3.92;1.88;;;;;;;;;;5039089;28;20078;-81
2023/06/27 16:06:48;;;;;;;5.25;1.73;;;;;;;;;;5041485;28;20052;-80
2023/06/27 16:09:14;;;;;;;3.90;2.20;;;;;;;;;;5039407;28;20055;-80
2023/06/27 16:11:40;;;;;;;3.80;2.47;;;;;;;;;;5039353;28;20078;-78
2023/06/27 16:14:06;;;;;;;4.20;2.15;;;;;;;;;;5039528;28;20361;-78
2023/06/27 16:16:32;;;;;;;3.75;1.77;;;;;;;;;;5022793;28;20025;-79
2023/06/27 16:18:58;;;;;;;3.90;1.85;;;;;;;;;;5050402;28;20024;-78
2023/06/27 16:21:24;;;;;;;5.32;1.70;;;;;;;;;;5052449;28;20017;-77
2023/06/27 16:23:50;;;;;;;5.50;1.63;;;;;;;;;;5039003;28;20722;-78
2023/06/27 16:26:16;;;;;;;4.15;1.98;;;;;;;;;;5037447;28;20051;-78
2023/06/27 16:28:42;;;;;;;7.70;3.50;;;;;;;;;;5038628;28;20056;-80
2023/06/27 16:31:09;;;;;;;4.72;1.58;;;;;;;;;;5038980;28;20026;-78
2023/06/27 16:33:35;;;;;;;6.32;4.97;;;;;;;;;;5039396;28;20143;-78
2023/06/27 16:36:03;;;;;;;11.80;6.63;;;;;;;;;;5037988;28;20037;-78
2023/06/27 16:38:29;;;;;;;12.70;8.18;;;;;;;;;;5041110;28;20049;-78